sensor_id;sensor_type;location;lat;lon;timestamp;pressure;altitude;pressure_sealevel;temperature;humidity
10988;BME280;5547;42.672;23.230;2023-04-27T00:01:46;92990.22;;;4.73;76.56
10988;BME280;5547;42.672;23.230;2023-04-27T00:04:47;92988.34;;;4.63;75.87
10988;BME280;5547;42.672;23.230;2023-04-27T00:07:47;92996.59;;;4.61;76.25
10988;BME280;5547;42.672;23.230;2023-04-27T00:10:47;92983.75;;;4.38;77.71
10988;BME280;5547;42.672;23.230;2023-04-27T00:13:48;92916.66;;;3.86;77.38
10988;BME280;5547;42.672;23.230;2023-04-27T00:16:48;93005.59;;;4.46;77.84
10988;BME280;5547;42.672;23.230;2023-04-27T00:19:49;92993.13;;;4.29;77.31
10988;BME280;5547;42.672;23.230;2023-04-27T00:22:49;93014.66;;;4.49;77.74
10988;BME280;5547;42.672;23.230;2023-04-27T00:25:49;93015.38;;;4.49;79.62
10988;BME280;5547;42.672;23.230;2023-04-27T00:28:50;93012.34;;;4.40;77.39
10988;BME280;5547;42.672;23.230;2023-04-27T00:31:50;92999.16;;;4.33;78.90
10988;BME280;5547;42.672;23.230;2023-04-27T00:34:51;93001.41;;;4.24;78.31
10988;BME280;5547;42.672;23.230;2023-04-27T00:37:52;92996.06;;;4.06;79.92
10988;BME280;5547;42.672;23.230;2023-04-27T00:41:01;92965.13;;;3.77;80.72
10988;BME280;5547;42.672;23.230;2023-04-27T00:44:02;92994.84;;;3.82;80.29
10988;BME280;5547;42.672;23.230;2023-04-27T00:47:02;92999.34;;;3.85;79.09
10988;BME280;5547;42.672;23.230;2023-04-27T00:50:03;92994.03;;;3.74;79.78
10988;BME280;5547;42.672;23.230;2023-04-27T00:53:07;92969.03;;;3.39;80.91
10988;BME280;5547;42.672;23.230;2023-04-27T00:56:08;92995.38;;;3.46;80.84
10988;BME280;5547;42.672;23.230;2023-04-27T00:59:08;92985.50;;;3.32;82.37
10988;BME280;5547;42.672;23.230;2023-04-27T01:02:09;93005.88;;;3.46;81.34
10988;BME280;5547;42.672;23.230;2023-04-27T01:05:11;92934.50;;;2.85;82.17
10988;BME280;5547;42.672;23.230;2023-04-27T01:08:12;92998.94;;;3.20;81.81
10988;BME280;5547;42.672;23.230;2023-04-27T01:11:13;92943.09;;;2.79;83.01
10988;BME280;5547;42.672;23.230;2023-04-27T01:14:13;93007.22;;;3.22;82.38
10988;BME280;5547;42.672;23.230;2023-04-27T01:17:13;93018.34;;;3.05;86.70
10988;BME280;5547;42.672;23.230;2023-04-27T01:20:14;92979.47;;;2.77;84.99
10988;BME280;5547;42.672;23.230;2023-04-27T01:23:14;93008.34;;;2.73;88.19
10988;BME280;5547;42.672;23.230;2023-04-27T01:26:15;92981.19;;;2.58;86.80
10988;BME280;5547;42.672;23.230;2023-04-27T01:29:15;92978.66;;;2.69;87.59
10988;BME280;5547;42.672;23.230;2023-04-27T01:32:16;93019.31;;;2.82;85.34
10988;BME280;5547;42.672;23.230;2023-04-27T01:35:16;93001.09;;;2.63;86.32
10988;BME280;5547;42.672;23.230;2023-04-27T01:38:17;93007.16;;;2.67;86.45
10988;BME280;5547;42.672;23.230;2023-04-27T01:41:17;92905.13;;;1.87;90.43
10988;BME280;5547;42.672;23.230;2023-04-27T01:44:17;93023.22;;;2.62;88.95
10988;BME280;5547;42.672;23.230;2023-04-27T01:47:20;93027.63;;;2.54;89.01
10988;BME280;5547;42.672;23.230;2023-04-27T01:50:20;93017.91;;;2.55;89.17
10988;BME280;5547;42.672;23.230;2023-04-27T01:53:21;92979.63;;;2.50;89.32
10988;BME280;5547;42.672;23.230;2023-04-27T01:56:21;93029.03;;;2.82;86.63
10988;BME280;5547;42.672;23.230;2023-04-27T01:59:21;92991.81;;;2.72;84.90
10988;BME280;5547;42.672;23.230;2023-04-27T02:02:22;93022.03;;;2.97;82.79
10988;BME280;5547;42.672;23.230;2023-04-27T02:05:22;93007.72;;;2.90;86.76
10988;BME280;5547;42.672;23.230;2023-04-27T02:08:23;92989.28;;;2.83;84.19
10988;BME280;5547;42.672;23.230;2023-04-27T02:11:24;93022.19;;;3.14;82.74
10988;BME280;5547;42.672;23.230;2023-04-27T02:14:24;93020.03;;;3.24;81.98
10988;BME280;5547;42.672;23.230;2023-04-27T02:17:24;92981.50;;;2.98;84.63
10988;BME280;5547;42.672;23.230;2023-04-27T02:20:25;93032.47;;;3.34;80.67
10988;BME280;5547;42.672;23.230;2023-04-27T02:23:25;93005.66;;;3.14;80.87
10988;BME280;5547;42.672;23.230;2023-04-27T02:26:26;92983.19;;;3.20;82.55
10988;BME280;5547;42.672;23.230;2023-04-27T02:29:29;93036.75;;;3.56;79.51
10988;BME280;5547;42.672;23.230;2023-04-27T02:32:30;93031.47;;;3.53;78.98
10988;BME280;5547;42.672;23.230;2023-04-27T02:35:30;93029.22;;;3.55;79.12
10988;BME280;5547;42.672;23.230;2023-04-27T02:38:34;93031.44;;;3.46;77.94
10988;BME280;5547;42.672;23.230;2023-04-27T02:41:34;93043.53;;;3.57;78.65
10988;BME280;5547;42.672;23.230;2023-04-27T02:44:34;93044.66;;;3.60;78.05
10988;BME280;5547;42.672;23.230;2023-04-27T02:47:35;93030.63;;;3.38;78.04
10988;BME280;5547;42.672;23.230;2023-04-27T02:50:42;93039.75;;;3.51;78.46
10988;BME280;5547;42.672;23.230;2023-04-27T02:53:43;93043.13;;;3.52;80.19
10988;BME280;5547;42.672;23.230;2023-04-27T02:56:43;92992.53;;;3.14;78.00
10988;BME280;5547;42.672;23.230;2023-04-27T02:59:43;93031.38;;;3.39;78.65
10988;BME280;5547;42.672;23.230;2023-04-27T03:02:44;93043.47;;;3.47;77.67
10988;BME280;5547;42.672;23.230;2023-04-27T03:05:45;93008.72;;;3.20;79.35
10988;BME280;5547;42.672;23.230;2023-04-27T03:08:45;92926.88;;;2.66;76.64
10988;BME280;5547;42.672;23.230;2023-04-27T03:11:46;93050.97;;;3.45;76.76
10988;BME280;5547;42.672;23.230;2023-04-27T03:14:46;93003.75;;;3.07;78.57
10988;BME280;5547;42.672;23.230;2023-04-27T03:17:47;93064.78;;;3.34;79.28
10988;BME280;5547;42.672;23.230;2023-04-27T03:20:47;93076.81;;;3.35;78.44
10988;BME280;5547;42.672;23.230;2023-04-27T03:23:47;92986.66;;;2.83;80.51
10988;BME280;5547;42.672;23.230;2023-04-27T03:26:48;93060.63;;;3.33;78.22
10988;BME280;5547;42.672;23.230;2023-04-27T03:29:50;93044.03;;;3.22;76.52
10988;BME280;5547;42.672;23.230;2023-04-27T03:32:52;93062.88;;;3.31;77.19
10988;BME280;5547;42.672;23.230;2023-04-27T03:35:56;93034.06;;;2.98;78.19
10988;BME280;5547;42.672;23.230;2023-04-27T03:38:56;93069.47;;;3.11;78.83
10988;BME280;5547;42.672;23.230;2023-04-27T03:41:57;93064.19;;;3.07;78.03
10988;BME280;5547;42.672;23.230;2023-04-27T03:44:58;93038.38;;;2.79;77.72
10988;BME280;5547;42.672;23.230;2023-04-27T03:47:58;93070.91;;;3.05;78.31
10988;BME280;5547;42.672;23.230;2023-04-27T03:50:59;93076.09;;;2.98;78.41
10988;BME280;5547;42.672;23.230;2023-04-27T03:54:00;93084.41;;;3.03;76.84
10988;BME280;5547;42.672;23.230;2023-04-27T03:57:01;93085.16;;;3.04;77.15
10988;BME280;5547;42.672;23.230;2023-04-27T04:00:01;93087.44;;;3.05;76.79
10988;BME280;5547;42.672;23.230;2023-04-27T04:03:06;93074.84;;;2.84;78.35
10988;BME280;5547;42.672;23.230;2023-04-27T04:06:06;93090.69;;;2.91;77.74
10988;BME280;5547;42.672;23.230;2023-04-27T04:09:07;93103.91;;;3.02;77.96
10988;BME280;5547;42.672;23.230;2023-04-27T04:12:07;93091.91;;;3.05;76.94
10988;BME280;5547;42.672;23.230;2023-04-27T04:15:08;93115.31;;;3.17;76.54
10988;BME280;5547;42.672;23.230;2023-04-27T04:18:08;93122.19;;;3.29;76.17
10988;BME280;5547;42.672;23.230;2023-04-27T04:21:09;93119.19;;;3.30;76.28
10988;BME280;5547;42.672;23.230;2023-04-27T04:24:12;93117.91;;;3.58;75.28
10988;BME280;5547;42.672;23.230;2023-04-27T04:27:12;93114.13;;;3.52;75.89
10988;BME280;5547;42.672;23.230;2023-04-27T04:30:13;93130.75;;;3.63;73.22
10988;BME280;5547;42.672;23.230;2023-04-27T04:33:14;93131.50;;;3.67;74.82
10988;BME280;5547;42.672;23.230;2023-04-27T04:36:14;93125.47;;;3.63;74.92
10988;BME280;5547;42.672;23.230;2023-04-27T04:39:14;93105.19;;;3.64;74.93
10988;BME280;5547;42.672;23.230;2023-04-27T04:42:15;93136.28;;;4.06;73.23
10988;BME280;5547;42.672;23.230;2023-04-27T04:45:16;93137.84;;;4.14;71.91
10988;BME280;5547;42.672;23.230;2023-04-27T04:48:16;93145.53;;;4.48;72.33
10988;BME280;5547;42.672;23.230;2023-04-27T04:51:17;93149.66;;;4.42;72.73
10988;BME280;5547;42.672;23.230;2023-04-27T04:54:17;93101.38;;;4.13;72.46
10988;BME280;5547;42.672;23.230;2023-04-27T04:57:18;93148.91;;;4.41;71.77
10988;BME280;5547;42.672;23.230;2023-04-27T05:00:18;93159.47;;;4.45;72.18
10988;BME280;5547;42.672;23.230;2023-04-27T05:03:19;93119.41;;;4.11;71.82
10988;BME280;5547;42.672;23.230;2023-04-27T05:06:23;93060.09;;;3.62;71.99
10988;BME280;5547;42.672;23.230;2023-04-27T05:09:23;93158.69;;;4.37;72.14
10988;BME280;5547;42.672;23.230;2023-04-27T05:12:24;93175.25;;;4.45;71.14
10988;BME280;5547;42.672;23.230;2023-04-27T05:15:24;93170.78;;;4.53;70.26
10988;BME280;5547;42.672;23.230;2023-04-27T05:18:25;93176.09;;;4.63;72.06
10988;BME280;5547;42.672;23.230;2023-04-27T05:21:25;93117.59;;;4.22;70.98
10988;BME280;5547;42.672;23.230;2023-04-27T05:24:28;93091.53;;;4.03;70.65
10988;BME280;5547;42.672;23.230;2023-04-27T05:27:29;93183.25;;;4.63;72.11
10988;BME280;5547;42.672;23.230;2023-04-27T05:30:29;93187.09;;;4.80;71.39
10988;BME280;5547;42.672;23.230;2023-04-27T05:33:30;93180.25;;;4.61;71.15
10988;BME280;5547;42.672;23.230;2023-04-27T05:36:30;93182.25;;;4.96;72.43
10988;BME280;5547;42.672;23.230;2023-04-27T05:39:31;93191.00;;;5.15;70.36
10988;BME280;5547;42.672;23.230;2023-04-27T05:42:31;93190.25;;;5.11;69.89
10988;BME280;5547;42.672;23.230;2023-04-27T05:45:32;93178.88;;;4.92;71.37
10988;BME280;5547;42.672;23.230;2023-04-27T05:48:32;93197.69;;;4.94;73.74
10988;BME280;5547;42.672;23.230;2023-04-27T05:51:33;93137.34;;;4.64;74.06
10988;BME280;5547;42.672;23.230;2023-04-27T05:54:34;93148.59;;;4.57;74.16
10988;BME280;5547;42.672;23.230;2023-04-27T05:57:35;93167.69;;;5.28;71.92
10988;BME280;5547;42.672;23.230;2023-04-27T06:00:35;93205.97;;;4.93;73.44
10988;BME280;5547;42.672;23.230;2023-04-27T06:03:36;93204.66;;;5.49;70.50
10988;BME280;5547;42.672;23.230;2023-04-27T06:06:36;93189.94;;;5.41;71.24
10988;BME280;5547;42.672;23.230;2023-04-27T06:09:37;93214.56;;;6.06;70.33
10988;BME280;5547;42.672;23.230;2023-04-27T06:12:37;93200.53;;;5.62;70.05
10988;BME280;5547;42.672;23.230;2023-04-27T06:15:38;93202.44;;;5.69;68.93
10988;BME280;5547;42.672;23.230;2023-04-27T06:18:38;93136.81;;;5.50;69.25
10988;BME280;5547;42.672;23.230;2023-04-27T06:21:39;93185.09;;;5.72;68.40
10988;BME280;5547;42.672;23.230;2023-04-27T06:24:39;93205.44;;;5.75;69.30
10988;BME280;5547;42.672;23.230;2023-04-27T06:27:41;93202.03;;;5.67;69.12
10988;BME280;5547;42.672;23.230;2023-04-27T06:30:43;93198.31;;;5.82;68.83
10988;BME280;5547;42.672;23.230;2023-04-27T06:33:43;93191.19;;;6.01;67.99
10988;BME280;5547;42.672;23.230;2023-04-27T06:36:43;93182.81;;;5.77;68.67
10988;BME280;5547;42.672;23.230;2023-04-27T06:39:44;93187.41;;;5.95;69.26
10988;BME280;5547;42.672;23.230;2023-04-27T06:42:44;93161.31;;;5.50;67.89
10988;BME280;5547;42.672;23.230;2023-04-27T06:45:44;93152.69;;;6.00;67.23
10988;BME280;5547;42.672;23.230;2023-04-27T06:48:45;93193.38;;;6.52;64.98
10988;BME280;5547;42.672;23.230;2023-04-27T06:51:47;93190.69;;;6.78;65.82
10988;BME280;5547;42.672;23.230;2023-04-27T06:54:47;93193.00;;;6.54;64.58
10988;BME280;5547;42.672;23.230;2023-04-27T06:57:48;93196.06;;;6.17;65.86
10988;BME280;5547;42.672;23.230;2023-04-27T07:00:48;93188.13;;;6.35;65.27
10988;BME280;5547;42.672;23.230;2023-04-27T07:03:49;93168.06;;;6.62;64.40
10988;BME280;5547;42.672;23.230;2023-04-27T07:06:49;93181.97;;;6.84;62.92
10988;BME280;5547;42.672;23.230;2023-04-27T07:09:50;93187.56;;;7.01;62.97
10988;BME280;5547;42.672;23.230;2023-04-27T07:12:50;93145.38;;;6.76;61.97
10988;BME280;5547;42.672;23.230;2023-04-27T07:15:54;93183.41;;;7.03;62.15
10988;BME280;5547;42.672;23.230;2023-04-27T07:18:56;93107.47;;;7.07;60.76
10988;BME280;5547;42.672;23.230;2023-04-27T07:21:57;93185.44;;;7.51;61.45
10988;BME280;5547;42.672;23.230;2023-04-27T07:24:57;93182.34;;;7.64;61.07
10988;BME280;5547;42.672;23.230;2023-04-27T07:27:58;93186.53;;;8.13;58.53
10988;BME280;5547;42.672;23.230;2023-04-27T07:30:58;93187.16;;;7.76;58.36
10988;BME280;5547;42.672;23.230;2023-04-27T07:33:59;93151.44;;;7.46;57.86
10988;BME280;5547;42.672;23.230;2023-04-27T07:37:00;93184.34;;;8.01;58.56
10988;BME280;5547;42.672;23.230;2023-04-27T07:40:00;93189.75;;;7.83;58.58
10988;BME280;5547;42.672;23.230;2023-04-27T07:43:01;93163.91;;;8.02;57.87
10988;BME280;5547;42.672;23.230;2023-04-27T07:46:03;93182.53;;;8.39;57.93
10988;BME280;5547;42.672;23.230;2023-04-27T07:49:03;93105.41;;;7.85;56.87
10988;BME280;5547;42.672;23.230;2023-04-27T07:52:04;93191.88;;;8.06;57.25
10988;BME280;5547;42.672;23.230;2023-04-27T07:55:05;93179.03;;;8.50;56.38
10988;BME280;5547;42.672;23.230;2023-04-27T07:58:06;93172.97;;;8.53;55.54
10988;BME280;5547;42.672;23.230;2023-04-27T08:01:06;93185.63;;;8.72;55.19
10988;BME280;5547;42.672;23.230;2023-04-27T08:04:06;93188.31;;;9.03;56.16
10988;BME280;5547;42.672;23.230;2023-04-27T08:07:07;93169.97;;;8.51;57.39
10988;BME280;5547;42.672;23.230;2023-04-27T08:10:07;93179.03;;;8.50;54.73
10988;BME280;5547;42.672;23.230;2023-04-27T08:13:08;93195.97;;;9.32;57.52
10988;BME280;5547;42.672;23.230;2023-04-27T08:16:09;93199.03;;;8.96;55.88
10988;BME280;5547;42.672;23.230;2023-04-27T08:19:10;93192.97;;;9.30;56.20
10988;BME280;5547;42.672;23.230;2023-04-27T08:22:10;93201.91;;;9.43;53.82
10988;BME280;5547;42.672;23.230;2023-04-27T08:25:11;93192.25;;;9.25;55.10
10988;BME280;5547;42.672;23.230;2023-04-27T08:28:12;93190.78;;;8.49;55.81
10988;BME280;5547;42.672;23.230;2023-04-27T08:31:12;93177.81;;;8.16;54.14
10988;BME280;5547;42.672;23.230;2023-04-27T08:34:13;93196.88;;;8.46;55.87
10988;BME280;5547;42.672;23.230;2023-04-27T08:37:13;93142.31;;;7.58;56.55
10988;BME280;5547;42.672;23.230;2023-04-27T08:40:13;93177.06;;;8.16;57.00
10988;BME280;5547;42.672;23.230;2023-04-27T08:43:14;93111.94;;;7.73;53.97
10988;BME280;5547;42.672;23.230;2023-04-27T08:46:22;93148.78;;;8.02;54.75
10988;BME280;5547;42.672;23.230;2023-04-27T08:49:23;93129.34;;;7.71;54.95
10988;BME280;5547;42.672;23.230;2023-04-27T08:52:23;93130.88;;;8.17;55.65
10988;BME280;5547;42.672;23.230;2023-04-27T08:55:23;93166.78;;;8.67;55.51
10988;BME280;5547;42.672;23.230;2023-04-27T08:58:35;93204.31;;;8.99;55.16
10988;BME280;5547;42.672;23.230;2023-04-27T09:01:43;93190.97;;;9.64;52.08
10988;BME280;5547;42.672;23.230;2023-04-27T09:04:43;93189.13;;;9.31;51.62
10988;BME280;5547;42.672;23.230;2023-04-27T09:08:04;93203.00;;;9.73;51.77
10988;BME280;5547;42.672;23.230;2023-04-27T09:11:07;93180.13;;;9.24;51.74
10988;BME280;5547;42.672;23.230;2023-04-27T09:14:18;93201.53;;;8.76;54.23
10988;BME280;5547;42.672;23.230;2023-04-27T09:17:23;93154.13;;;8.78;54.29
10988;BME280;5547;42.672;23.230;2023-04-27T09:20:24;93179.13;;;9.42;51.18
10988;BME280;5547;42.672;23.230;2023-04-27T09:23:27;93195.31;;;10.76;51.51
10988;BME280;5547;42.672;23.230;2023-04-27T09:26:27;93150.75;;;10.17;51.63
10988;BME280;5547;42.672;23.230;2023-04-27T09:29:35;93187.13;;;9.11;53.43
10988;BME280;5547;42.672;23.230;2023-04-27T09:32:35;93172.38;;;9.37;52.42
10988;BME280;5547;42.672;23.230;2023-04-27T09:35:36;93198.16;;;9.37;54.54
10988;BME280;5547;42.672;23.230;2023-04-27T09:38:37;93188.31;;;9.64;52.50
10988;BME280;5547;42.672;23.230;2023-04-27T09:41:37;93182.72;;;10.09;50.04
10988;BME280;5547;42.672;23.230;2023-04-27T09:44:37;93152.34;;;10.10;50.78
10988;BME280;5547;42.672;23.230;2023-04-27T09:47:38;93167.53;;;9.59;51.84
10988;BME280;5547;42.672;23.230;2023-04-27T09:50:41;93153.25;;;9.77;49.04
10988;BME280;5547;42.672;23.230;2023-04-27T09:53:51;93165.66;;;9.56;49.49
10988;BME280;5547;42.672;23.230;2023-04-27T09:57:16;93143.31;;;8.96;51.92
10988;BME280;5547;42.672;23.230;2023-04-27T10:00:32;93109.56;;;9.00;50.85
10988;BME280;5547;42.672;23.230;2023-04-27T10:07:15;93126.53;;;9.87;45.12
10988;BME280;5547;42.672;23.230;2023-04-27T10:10:17;93161.22;;;11.11;46.89
10988;BME280;5547;42.672;23.230;2023-04-27T10:13:22;93127.25;;;11.19;44.75
10988;BME280;5547;42.672;23.230;2023-04-27T10:16:23;93162.28;;;12.06;41.84
10988;BME280;5547;42.672;23.230;2023-04-27T10:19:24;93163.94;;;11.64;43.32
10988;BME280;5547;42.672;23.230;2023-04-27T10:22:47;93141.50;;;10.68;45.61
10988;BME280;5547;42.672;23.230;2023-04-27T10:25:49;93152.72;;;10.36;44.46
10988;BME280;5547;42.672;23.230;2023-04-27T10:29:16;93152.97;;;10.18;43.76
10988;BME280;5547;42.672;23.230;2023-04-27T10:32:19;93145.44;;;11.20;46.06
10988;BME280;5547;42.672;23.230;2023-04-27T10:35:30;93156.75;;;11.44;44.58
10988;BME280;5547;42.672;23.230;2023-04-27T10:38:31;93113.41;;;10.47;43.58
10988;BME280;5547;42.672;23.230;2023-04-27T10:41:35;93151.97;;;10.79;44.86
10988;BME280;5547;42.672;23.230;2023-04-27T10:44:36;93145.00;;;10.85;42.43
10988;BME280;5547;42.672;23.230;2023-04-27T10:47:43;93151.50;;;11.41;43.37
10988;BME280;5547;42.672;23.230;2023-04-27T10:50:44;93157.13;;;12.15;43.08
10988;BME280;5547;42.672;23.230;2023-04-27T10:53:51;93181.34;;;12.37;40.58
10988;BME280;5547;42.672;23.230;2023-04-27T10:56:51;93146.19;;;11.57;42.75
10988;BME280;5547;42.672;23.230;2023-04-27T10:59:53;93162.16;;;11.41;40.92
10988;BME280;5547;42.672;23.230;2023-04-27T11:02:56;93161.13;;;11.71;41.48
10988;BME280;5547;42.672;23.230;2023-04-27T11:06:04;93122.28;;;12.06;37.94
10988;BME280;5547;42.672;23.230;2023-04-27T11:09:04;93153.25;;;10.91;40.26
10988;BME280;5547;42.672;23.230;2023-04-27T11:12:07;93146.09;;;11.08;43.12
10988;BME280;5547;42.672;23.230;2023-04-27T11:15:08;93151.38;;;11.81;41.48
10988;BME280;5547;42.672;23.230;2023-04-27T11:18:08;93151.41;;;12.46;38.90
10988;BME280;5547;42.672;23.230;2023-04-27T11:21:17;93146.38;;;12.65;40.22
10988;BME280;5547;42.672;23.230;2023-04-27T11:24:19;93155.97;;;11.80;40.91
10988;BME280;5547;42.672;23.230;2023-04-27T11:27:20;93156.00;;;11.96;39.48
10988;BME280;5547;42.672;23.230;2023-04-27T11:30:22;93122.31;;;11.17;41.96
10988;BME280;5547;42.672;23.230;2023-04-27T11:33:23;93130.19;;;11.04;41.72
10988;BME280;5547;42.672;23.230;2023-04-27T11:36:23;93126.78;;;10.84;43.16
10988;BME280;5547;42.672;23.230;2023-04-27T11:39:27;93153.63;;;11.29;43.58
10988;BME280;5547;42.672;23.230;2023-04-27T11:42:28;93159.53;;;11.57;43.04
10988;BME280;5547;42.672;23.230;2023-04-27T11:45:28;93161.41;;;11.40;41.78
10988;BME280;5547;42.672;23.230;2023-04-27T11:48:29;93137.00;;;11.25;42.99
10988;BME280;5547;42.672;23.230;2023-04-27T11:51:31;93147.38;;;11.00;42.01
10988;BME280;5547;42.672;23.230;2023-04-27T11:54:36;93136.25;;;10.85;42.05
10988;BME280;5547;42.672;23.230;2023-04-27T11:57:37;93138.56;;;11.75;42.58
10988;BME280;5547;42.672;23.230;2023-04-27T12:00:37;93165.22;;;11.75;42.59
10988;BME280;5547;42.672;23.230;2023-04-27T12:03:38;93157.88;;;10.67;43.39
10988;BME280;5547;42.672;23.230;2023-04-27T12:06:38;93168.84;;;10.49;43.80
10988;BME280;5547;42.672;23.230;2023-04-27T12:09:40;93174.00;;;11.56;44.77
10988;BME280;5547;42.672;23.230;2023-04-27T12:12:41;93167.31;;;11.11;42.69
10988;BME280;5547;42.672;23.230;2023-04-27T12:15:41;93169.84;;;10.99;43.11
10988;BME280;5547;42.672;23.230;2023-04-27T12:18:42;93176.13;;;10.88;42.71
10988;BME280;5547;42.672;23.230;2023-04-27T12:21:42;93181.63;;;11.18;43.86
10988;BME280;5547;42.672;23.230;2023-04-27T12:24:43;93173.91;;;11.60;42.79
10988;BME280;5547;42.672;23.230;2023-04-27T12:27:44;93149.00;;;11.33;43.32
10988;BME280;5547;42.672;23.230;2023-04-27T12:30:46;93095.22;;;10.66;42.14
10988;BME280;5547;42.672;23.230;2023-04-27T12:33:48;93119.38;;;11.48;44.13
10988;BME280;5547;42.672;23.230;2023-04-27T12:36:50;93133.88;;;11.47;41.61
10988;BME280;5547;42.672;23.230;2023-04-27T12:39:50;93173.28;;;11.35;42.57
10988;BME280;5547;42.672;23.230;2023-04-27T12:42:51;93128.34;;;11.21;41.62
10988;BME280;5547;42.672;23.230;2023-04-27T12:45:51;93186.47;;;11.43;41.40
10988;BME280;5547;42.672;23.230;2023-04-27T12:48:52;93183.13;;;10.99;41.67
10988;BME280;5547;42.672;23.230;2023-04-27T12:51:53;93181.06;;;10.66;42.32
10988;BME280;5547;42.672;23.230;2023-04-27T12:54:53;93182.56;;;10.67;42.54
10988;BME280;5547;42.672;23.230;2023-04-27T12:57:56;93180.50;;;10.55;43.26
10988;BME280;5547;42.672;23.230;2023-04-27T13:00:57;93170.03;;;10.88;42.41
10988;BME280;5547;42.672;23.230;2023-04-27T13:03:59;93168.75;;;10.96;42.33
10988;BME280;5547;42.672;23.230;2023-04-27T13:07:00;93174.38;;;11.18;42.40
10988;BME280;5547;42.672;23.230;2023-04-27T13:10:01;93169.56;;;11.13;41.28
10988;BME280;5547;42.672;23.230;2023-04-27T13:13:02;93175.34;;;11.28;42.05
10988;BME280;5547;42.672;23.230;2023-04-27T13:16:03;93155.97;;;10.87;42.21
10988;BME280;5547;42.672;23.230;2023-04-27T13:19:03;93178.25;;;10.54;42.41
10988;BME280;5547;42.672;23.230;2023-04-27T13:22:04;93166.34;;;10.82;42.40
10988;BME280;5547;42.672;23.230;2023-04-27T13:25:04;93174.75;;;11.00;41.94
10988;BME280;5547;42.672;23.230;2023-04-27T13:28:06;93156.38;;;11.26;42.34
10988;BME280;5547;42.672;23.230;2023-04-27T13:31:06;93173.25;;;11.92;41.32
10988;BME280;5547;42.672;23.230;2023-04-27T13:34:07;93163.53;;;12.02;40.11
10988;BME280;5547;42.672;23.230;2023-04-27T13:37:07;93172.78;;;12.13;40.49
10988;BME280;5547;42.672;23.230;2023-04-27T13:40:09;93171.25;;;11.60;40.99
10988;BME280;5547;42.672;23.230;2023-04-27T13:43:12;93144.66;;;11.23;41.34
10988;BME280;5547;42.672;23.230;2023-04-27T13:46:13;93168.72;;;11.36;41.95
10988;BME280;5547;42.672;23.230;2023-04-27T13:49:14;93143.13;;;10.62;41.48
10988;BME280;5547;42.672;23.230;2023-04-27T13:52:14;93165.38;;;10.52;42.27
10988;BME280;5547;42.672;23.230;2023-04-27T13:55:15;93178.84;;;10.41;42.11
10988;BME280;5547;42.672;23.230;2023-04-27T13:58:15;93176.34;;;10.74;43.87
10988;BME280;5547;42.672;23.230;2023-04-27T14:01:16;93179.41;;;11.16;42.03
10988;BME280;5547;42.672;23.230;2023-04-27T14:04:16;93183.75;;;10.86;42.94
10988;BME280;5547;42.672;23.230;2023-04-27T14:07:18;93179.47;;;10.49;43.33
10988;BME280;5547;42.672;23.230;2023-04-27T14:10:18;93173.84;;;9.96;43.64
10988;BME280;5547;42.672;23.230;2023-04-27T14:13:19;93193.75;;;10.35;43.76
10988;BME280;5547;42.672;23.230;2023-04-27T14:16:19;93188.50;;;10.28;43.99
10988;BME280;5547;42.672;23.230;2023-04-27T14:19:20;93201.84;;;10.51;43.22
10988;BME280;5547;42.672;23.230;2023-04-27T14:22:20;93190.88;;;10.49;43.07
10988;BME280;5547;42.672;23.230;2023-04-27T14:25:20;93206.69;;;11.20;40.75
10988;BME280;5547;42.672;23.230;2023-04-27T14:28:21;93205.78;;;10.87;41.43
10988;BME280;5547;42.672;23.230;2023-04-27T14:31:21;93205.78;;;10.87;42.07
10988;BME280;5547;42.672;23.230;2023-04-27T14:34:22;93140.47;;;9.68;42.33
10988;BME280;5547;42.672;23.230;2023-04-27T14:37:23;93209.88;;;10.21;41.73
10988;BME280;5547;42.672;23.230;2023-04-27T14:40:23;93135.97;;;9.65;43.19
10988;BME280;5547;42.672;23.230;2023-04-27T14:43:23;93181.44;;;10.21;43.52
10988;BME280;5547;42.672;23.230;2023-04-27T14:46:24;93224.69;;;10.92;41.27
10988;BME280;5547;42.672;23.230;2023-04-27T14:49:24;93189.66;;;10.54;42.69
10988;BME280;5547;42.672;23.230;2023-04-27T14:52:26;93219.22;;;10.33;44.22
10988;BME280;5547;42.672;23.230;2023-04-27T14:55:26;93168.06;;;10.01;42.51
10988;BME280;5547;42.672;23.230;2023-04-27T14:58:27;93170.00;;;10.48;41.73
10988;BME280;5547;42.672;23.230;2023-04-27T15:01:27;93237.66;;;10.67;42.42
10988;BME280;5547;42.672;23.230;2023-04-27T15:04:28;93247.19;;;9.59;43.60
10988;BME280;5547;42.672;23.230;2023-04-27T15:07:28;93241.81;;;9.63;43.89
10988;BME280;5547;42.672;23.230;2023-04-27T15:10:28;93240.63;;;9.06;44.27
10988;BME280;5547;42.672;23.230;2023-04-27T15:13:29;93243.28;;;9.06;44.59
10988;BME280;5547;42.672;23.230;2023-04-27T15:16:29;93239.31;;;8.83;45.23
10988;BME280;5547;42.672;23.230;2023-04-27T15:19:30;93221.31;;;8.64;44.93
10988;BME280;5547;42.672;23.230;2023-04-27T15:22:31;93227.31;;;8.72;46.21
10988;BME280;5547;42.672;23.230;2023-04-27T15:25:31;93250.00;;;8.76;45.99
10988;BME280;5547;42.672;23.230;2023-04-27T15:28:31;93253.19;;;8.98;46.37
10988;BME280;5547;42.672;23.230;2023-04-27T15:31:33;93235.66;;;8.70;46.49
10988;BME280;5547;42.672;23.230;2023-04-27T15:34:33;93236.03;;;8.69;44.97
10988;BME280;5547;42.672;23.230;2023-04-27T15:37:34;93206.03;;;8.34;45.25
10988;BME280;5547;42.672;23.230;2023-04-27T15:40:35;93246.00;;;8.57;46.40
10988;BME280;5547;42.672;23.230;2023-04-27T15:43:36;93252.75;;;8.66;46.21
10988;BME280;5547;42.672;23.230;2023-04-27T15:46:36;93258.78;;;8.70;46.53
10988;BME280;5547;42.672;23.230;2023-04-27T15:49:37;93255.41;;;8.66;46.63
10988;BME280;5547;42.672;23.230;2023-04-27T15:52:37;93251.94;;;8.72;46.62
10988;BME280;5547;42.672;23.230;2023-04-27T15:55:37;93262.75;;;8.47;45.40
10988;BME280;5547;42.672;23.230;2023-04-27T15:58:38;93224.31;;;8.21;45.89
10988;BME280;5547;42.672;23.230;2023-04-27T16:01:38;93247.63;;;8.44;47.35
10988;BME280;5547;42.672;23.230;2023-04-27T16:04:39;93229.63;;;8.17;45.95
10988;BME280;5547;42.672;23.230;2023-04-27T16:07:42;93267.38;;;8.32;47.03
10988;BME280;5547;42.672;23.230;2023-04-27T16:10:42;93267.38;;;8.32;48.20
10988;BME280;5547;42.672;23.230;2023-04-27T16:13:43;93246.63;;;8.20;47.77